Warning: fopen(/var/www/metroair/shared/private/wxdata/TAF/AVWX/taf_EHAM): failed to open stream: Permission denied in /var/www/metroair/shared/private/library/orig_library/lib_airport.php on line 533

Warning: fwrite() expects parameter 1 to be resource, boolean given in /var/www/metroair/shared/private/library/orig_library/lib_airport.php on line 534

Warning: fclose() expects parameter 1 to be resource, boolean given in /var/www/metroair/shared/private/library/orig_library/lib_airport.php on line 535

MET6065 - London Heathrow to Amsterdam Schiphol

Boeing 737-800
G-FLII - Fly UK
0 hrs 45 mins
200 nm
Fly UK Codeshare - Daily

Departure

Departing from
London Heathrow (LHR)
Departure gate
Terminal 3
Scheduled Departure
GMT 1905
Local 1905
METAR EGLL 170220Z AUTO 10003KT 7000 NCD 03/03 Q1033 NOSIG
TAF TAF EGLL 162302Z 1700/1806 09003KT 9999 SCT030 TEMPO 1700/1708 8000 BECMG 1722/1801 6000 PROB30 TEMPO 1803/1806 3000 MIFG BR
  • No charts available

Arrival

Arriving at
Amsterdam Schiphol (AMS)
Arrival gate
Concourse G
Scheduled Arrival
GMT 1950
Local 2050
METAR EHAM 170225Z 10004KT 050V140 2700 BR FEW003 BKN004 M05/M05 Q1035 BECMG 1400 BKN002
TAF TAF EHAM 162311Z 1700/1806 09005KT 4500 BR BKN004 BECMG 1700/1702 2000 SCT002 OVC003 PROB40 1700/1709 0500 FZFG OVC001 BECMG 1710/1713 BKN007 BECMG 1718/1721 2500 MIFG PROB40 1718/1806 0600 FZFG BKN002

Route Map

Planning Resources

EGLL BPK CLN ARTOV REDFA EHAM
EGLL LAM REFSO EHAM
EGLL BPK6J REDF1A EHAM
BPK6J BPK Q295 CLN L620 REDFA DCT
EGLL WOBUN BUZAD OLNEY ADMIS REDFA EHAM
Route:
OFP Layout:
Units:
Detailed Navlog:
ETOPS Planning:
Plan Stepclimbs:
Runway Analysis:
Include NOTAMS:
FIR NOTAMS:
Flight Maps:

Return Flights

MET6066 (Operated by Fly UK)
Boeing 737-800
2020 GMT

Popularity

Hub Current Bids PiReps this month Total PiReps
KMCI 0 0 5
KLAX 0 0 4
KBOS 0 0 0